Time;durP1;ratioP1;P1;durP2;ratioP2;P2;SDS_P1;SDS_P2;PMS_P1;PMS_P2;Temp;Humidity;BMP_temperature;BMP_pressure;BME280_temperature;BME280_humidity;BME280_pressure;Samples;Min_cycle;Max_cycle;Signal;HPM_P1;HPM_P2
2021/10/12 00:01:10;;;;;;;22.33;15.50;;;;;;;7.30;nan;101332.84;5014423;28;20123;-85
2021/10/12 00:03:35;;;;;;;21.63;15.05;;;;;;;7.38;nan;101328.69;5013355;28;20152;-84
2021/10/12 00:06:01;;;;;;;24.90;16.67;;;;;;;7.37;nan;101332.28;5013679;28;20498;-86
2021/10/12 00:08:26;;;;;;;22.60;14.77;;;;;;;7.50;nan;101328.75;5017981;28;20105;-85
2021/10/12 00:10:52;;;;;;;23.48;15.40;;;;;;;7.47;nan;101315.81;5035240;28;20052;-85
2021/10/12 00:13:17;;;;;;;26.05;17.23;;;;;;;7.45;nan;101313.28;5017928;28;20178;-85
2021/10/12 00:15:43;;;;;;;30.55;18.17;;;;;;;7.66;nan;101321.41;5016543;28;20037;-85
2021/10/12 00:18:09;;;;;;;25.92;16.85;;;;;;;7.71;nan;101315.81;5017500;28;20040;-85
2021/10/12 00:20:35;;;;;;;25.38;16.50;;;;;;;7.69;nan;101321.16;5037241;28;20141;-84
2021/10/12 00:23:00;;;;;;;20.85;14.65;;;;;;;7.75;nan;101326.00;5018914;28;20407;-84
2021/10/12 00:25:25;;;;;;;21.67;15.32;;;;;;;7.78;nan;101330.19;5036802;28;20037;-85
2021/10/12 00:27:51;;;;;;;24.50;15.65;;;;;;;7.83;nan;101325.41;5025410;28;20030;-85
2021/10/12 00:30:16;;;;;;;23.98;15.77;;;;;;;7.85;nan;101334.03;5022821;28;20036;-83
2021/10/12 00:32:41;;;;;;;20.67;14.40;;;;;;;7.90;nan;101331.91;5017945;28;20041;-85
2021/10/12 00:35:07;;;;;;;23.75;15.73;;;;;;;7.90;nan;101341.59;5016781;28;20038;-84
2021/10/12 00:37:33;;;;;;;21.83;15.05;;;;;;;7.92;nan;101331.81;5016117;28;20176;-85
2021/10/12 00:39:58;;;;;;;24.88;16.20;;;;;;;7.92;nan;101343.16;5015550;28;20180;-86
2021/10/12 00:42:23;;;;;;;23.83;15.70;;;;;;;7.90;nan;101344.25;5034069;28;20045;-85
2021/10/12 00:44:49;;;;;;;26.52;17.23;;;;;;;7.99;nan;101343.56;5032960;28;20521;-84
2021/10/12 00:47:15;;;;;;;21.08;15.68;;;;;;;7.92;nan;101339.69;5033581;28;20038;-84
2021/10/12 00:49:41;;;;;;;20.73;13.88;;;;;;;7.98;nan;101331.31;5019690;28;20033;-85
2021/10/12 00:52:06;;;;;;;22.48;14.85;;;;;;;7.97;nan;101329.66;5033728;28;20491;-83
2021/10/12 00:54:32;;;;;;;22.08;15.52;;;;;;;7.94;nan;101314.09;5033258;28;20037;-85
2021/10/12 00:56:57;;;;;;;19.90;13.07;;;;;;;7.94;nan;101316.72;5033051;28;20038;-84
2021/10/12 00:59:22;;;;;;;23.02;15.88;;;;;;;7.91;nan;101309.88;5017408;28;20084;-84
2021/10/12 01:01:48;;;;;;;21.05;14.27;;;;;;;7.96;nan;101315.66;5033083;28;20033;-84
2021/10/12 01:04:14;;;;;;;19.95;13.77;;;;;;;7.96;nan;101306.91;5026962;28;20300;-84
2021/10/12 01:06:40;;;;;;;21.85;14.82;;;;;;;7.99;nan;101298.78;5045031;28;20037;-85
2021/10/12 01:09:05;;;;;;;23.10;16.35;;;;;;;7.83;nan;101294.66;5026692;28;20067;-84
2021/10/12 01:11:33;;;;;;;21.52;15.05;;;;;;;7.85;nan;101284.84;5027702;28;20033;-83
2021/10/12 01:14:01;;;;;;;24.48;15.70;;;;;;;7.82;nan;101289.53;5045799;28;20297;-83
2021/10/12 01:16:26;;;;;;;23.90;16.77;;;;;;;7.85;nan;101286.66;5044584;28;20057;-85
2021/10/12 01:19:00;;;;;;;28.00;18.25;;;;;;;7.77;nan;101275.84;5045060;28;20105;-86
2021/10/12 01:21:36;;;;;;;24.05;16.23;;;;;;;7.76;nan;101279.44;5046737;28;20043;-84
2021/10/12 01:24:02;;;;;;;21.40;15.13;;;;;;;7.73;nan;101275.25;5027779;28;20042;-85
2021/10/12 01:26:27;;;;;;;20.08;13.68;;;;;;;7.75;nan;101272.50;5025845;28;20037;-83
2021/10/12 01:28:52;;;;;;;21.33;14.55;;;;;;;7.78;nan;101267.84;5028377;28;20036;-84
2021/10/12 01:31:28;;;;;;;20.85;14.25;;;;;;;7.87;nan;101266.31;5027777;28;20061;-83
2021/10/12 01:33:54;;;;;;;20.08;14.60;;;;;;;7.88;nan;101262.72;5042902;28;20041;-84
2021/10/12 01:36:20;;;;;;;22.15;15.68;;;;;;;7.84;nan;101266.53;5022314;28;20433;-84
2021/10/12 01:38:46;;;;;;;26.85;16.17;;;;;;;7.77;nan;101257.41;5043280;28;20097;-84
2021/10/12 01:41:11;;;;;;;21.63;15.30;;;;;;;7.76;nan;101250.47;5024389;28;20064;-86
2021/10/12 01:43:38;;;;;;;21.35;15.15;;;;;;;7.84;nan;101256.84;5023312;28;20030;-84
2021/10/12 01:46:05;;;;;;;20.23;14.48;;;;;;;7.87;nan;101246.06;5024843;28;20097;-85
2021/10/12 01:48:32;;;;;;;21.85;13.95;;;;;;;7.82;nan;101234.22;5031100;28;20080;-84
2021/10/12 01:50:57;;;;;;;20.95;14.77;;;;;;;7.83;nan;101235.91;5023380;28;20128;-84
2021/10/12 01:53:23;;;;;;;20.85;14.73;;;;;;;7.81;nan;101232.53;5042741;28;20294;-84
2021/10/12 01:55:48;;;;;;;22.23;14.70;;;;;;;7.78;nan;101228.34;5023830;28;20041;-83
2021/10/12 01:58:13;;;;;;;22.67;14.88;;;;;;;7.72;nan;101212.16;5026564;28;20108;-84
2021/10/12 02:00:39;;;;;;;20.63;14.57;;;;;;;7.65;nan;101214.41;5026651;28;20040;-83
2021/10/12 02:03:05;;;;;;;21.70;15.63;;;;;;;7.54;nan;101212.59;5027260;28;20039;-84
2021/10/12 02:05:30;;;;;;;20.20;14.77;;;;;;;7.47;nan;101207.94;5026103;28;20037;-84
2021/10/12 02:07:55;;;;;;;23.75;16.15;;;;;;;;;;5043573;28;20092;-84
2021/10/12 02:10:21;;;;;;;23.60;15.73;;;;;;;7.25;nan;101209.53;5025941;28;20045;-84
2021/10/12 02:12:46;;;;;;;18.15;13.55;;;;;;;7.27;nan;101196.25;5044358;28;20288;-85
2021/10/12 02:15:12;;;;;;;17.92;12.43;;;;;;;7.25;nan;101193.75;5025027;28;20163;-83
2021/10/12 02:17:38;;;;;;;17.45;12.60;;;;;;;7.23;nan;101188.59;5026929;28;20043;-84
2021/10/12 02:20:05;;;;;;;18.13;13.15;;;;;;;7.31;nan;101185.38;5025426;28;20132;-84
2021/10/12 02:22:30;;;;;;;16.65;11.75;;;;;;;7.29;nan;101191.72;5042237;28;20052;-85
2021/10/12 02:24:58;;;;;;;21.27;13.43;;;;;;;7.26;nan;101184.06;5025652;28;20053;-82
2021/10/12 02:27:24;;;;;;;19.23;12.93;;;;;;;7.29;nan;101195.16;5025522;28;20101;-82
2021/10/12 02:29:49;;;;;;;19.05;13.43;;;;;;;7.27;nan;101185.72;5025349;28;20033;-84
2021/10/12 02:32:15;;;;;;;19.00;12.18;;;;;;;7.30;nan;101175.00;5022290;28;20048;-84
2021/10/12 02:34:41;;;;;;;18.92;12.85;;;;;;;7.31;nan;101184.53;5042336;28;20041;-85
2021/10/12 02:37:06;;;;;;;18.23;12.57;;;;;;;7.29;nan;101171.50;5024434;28;20053;-82
2021/10/12 02:39:32;;;;;;;19.65;13.00;;;;;;;7.33;nan;101178.22;5041994;28;20036;-83
2021/10/12 02:41:57;;;;;;;18.92;11.77;;;;;;;7.40;nan;101181.22;5023547;28;20048;-85
2021/10/12 02:44:23;;;;;;;19.20;12.02;;;;;;;7.42;nan;101174.06;5023962;28;20049;-84
2021/10/12 02:46:48;;;;;;;20.77;12.15;;;;;;;7.43;nan;101171.28;5025450;28;20044;-83
2021/10/12 02:49:13;;;;;;;14.52;10.80;;;;;;;7.48;nan;101165.69;5024476;28;20289;-85
2021/10/12 02:51:39;;;;;;;19.30;12.63;;;;;;;7.51;nan;101159.34;5025759;28;20033;-84
2021/10/12 02:54:04;;;;;;;19.52;13.55;;;;;;;7.47;nan;101152.66;5025530;28;20053;-83
2021/10/12 02:56:30;;;;;;;20.95;13.45;;;;;;;7.46;nan;101157.09;5024867;28;20036;-84
2021/10/12 02:58:55;;;;;;;19.30;12.70;;;;;;;7.47;nan;101156.13;5023440;28;20145;-83
2021/10/12 03:01:20;;;;;;;19.40;12.70;;;;;;;7.49;nan;101156.84;5043470;28;20068;-86
2021/10/12 03:03:46;;;;;;;16.42;11.23;;;;;;;7.51;nan;101146.19;5025737;28;20538;-84
2021/10/12 03:06:13;;;;;;;18.05;12.20;;;;;;;7.52;nan;101140.00;5041145;28;20038;-83
2021/10/12 03:08:38;;;;;;;17.48;11.93;;;;;;;7.57;nan;101138.69;5025052;28;20049;-85
2021/10/12 03:11:04;;;;;;;17.08;11.73;;;;;;;7.58;nan;101135.09;5025174;28;20087;-84
2021/10/12 03:13:29;;;;;;;16.90;12.27;;;;;;;7.59;nan;101138.56;5042447;28;20536;-84
2021/10/12 03:15:55;;;;;;;17.75;11.95;;;;;;;7.61;nan;101139.31;5043761;28;20103;-84
2021/10/12 03:18:20;;;;;;;16.45;10.88;;;;;;;7.59;nan;101131.50;5025006;28;20038;-84
2021/10/12 03:20:45;;;;;;;18.17;12.57;;;;;;;7.57;nan;101140.47;5025901;28;20029;-84
2021/10/12 03:23:11;;;;;;;16.77;12.18;;;;;;;7.55;nan;101142.38;5025258;28;20029;-84
2021/10/12 03:25:36;;;;;;;17.05;12.45;;;;;;;7.58;nan;101145.63;5010155;28;20037;-83
2021/10/12 03:28:02;;;;;;;17.42;11.90;;;;;;;7.56;nan;101150.19;5024730;28;20028;-86
2021/10/12 03:30:27;;;;;;;16.92;11.30;;;;;;;7.68;nan;101150.19;5042350;28;20034;-83
2021/10/12 03:32:53;;;;;;;18.77;12.07;;;;;;;7.74;nan;101147.91;5025749;28;20048;-84
2021/10/12 03:35:25;;;;;;;14.52;10.63;;;;;;;7.71;nan;101152.59;5024058;28;20503;-84
2021/10/12 03:37:51;;;;;;;15.85;10.48;;;;;;;7.75;nan;101154.03;5041027;28;20464;-84
2021/10/12 03:40:16;;;;;;;17.77;12.00;;;;;;;7.84;nan;101151.53;5039788;28;20045;-83
2021/10/12 03:42:42;;;;;;;25.98;16.90;;;;;;;7.86;nan;101152.25;5044203;28;20530;-83
2021/10/12 03:45:07;;;;;;;24.50;15.65;;;;;;;7.87;nan;101155.72;5027191;28;20060;-85
2021/10/12 03:47:33;;;;;;;23.58;15.60;;;;;;;7.91;nan;101146.59;5046321;28;20033;-83
2021/10/12 03:49:58;;;;;;;24.08;15.93;;;;;;;7.95;nan;101161.22;5029582;28;20120;-84
2021/10/12 03:52:23;;;;;;;21.15;14.35;;;;;;;7.93;nan;101157.03;5028693;28;20033;-84
2021/10/12 03:54:50;;;;;;;21.08;12.82;;;;;;;7.92;nan;101158.00;5028608;28;20120;-84
2021/10/12 03:57:16;;;;;;;18.38;12.60;;;;;;;7.93;nan;101157.03;5028479;28;20116;-84
2021/10/12 03:59:41;;;;;;;16.67;11.63;;;;;;;7.90;nan;101154.66;5047383;28;20465;-84
2021/10/12 04:02:06;;;;;;;20.60;14.38;;;;;;;7.90;nan;101146.75;5030087;28;20046;-84
2021/10/12 04:04:32;;;;;;;20.23;13.13;;;;;;;7.95;nan;101153.31;5029013;28;20041;-84
2021/10/12 04:06:57;;;;;;;21.45;13.43;;;;;;;7.98;nan;101160.13;5044794;28;20034;-84
2021/10/12 04:09:22;;;;;;;21.23;15.00;;;;;;;7.96;nan;101151.50;5026945;28;20095;-84
2021/10/12 04:11:48;;;;;;;19.70;14.23;;;;;;;8.00;nan;101145.88;5030620;28;20057;-84
2021/10/12 04:14:13;;;;;;;28.55;19.17;;;;;;;7.96;nan;101147.13;5048625;28;20037;-83
2021/10/12 04:16:38;;;;;;;28.98;18.48;;;;;;;7.94;nan;101142.91;5042344;28;20034;-82
2021/10/12 04:19:04;;;;;;;29.85;18.98;;;;;;;7.97;nan;101140.88;5023815;28;20423;-82
2021/10/12 04:21:29;;;;;;;27.75;19.48;;;;;;;8.00;nan;101138.00;5040731;28;20045;-84
2021/10/12 04:23:55;;;;;;;28.27;18.55;;;;;;;7.98;nan;101137.25;5021433;28;20033;-83
2021/10/12 04:26:23;;;;;;;36.72;24.20;;;;;;;7.95;nan;101142.78;5039135;28;20053;-84
2021/10/12 04:28:48;;;;;;;35.88;24.00;;;;;;;7.96;nan;101141.84;5039154;28;20057;-83
2021/10/12 04:31:14;;;;;;;29.50;19.75;;;;;;;7.99;nan;101136.31;5022434;28;20041;-83
2021/10/12 04:33:39;;;;;;;25.73;18.25;;;;;;;7.98;nan;101133.81;5023158;28;20035;-83
2021/10/12 04:36:05;;;;;;;25.80;18.10;;;;;;;7.96;nan;101130.44;5039551;28;20210;-82
2021/10/12 04:38:30;;;;;;;33.15;21.10;;;;;;;8.01;nan;101131.78;5040309;28;20049;-83
2021/10/12 04:40:56;;;;;;;27.63;19.10;;;;;;;8.01;nan;101130.94;5021256;28;20029;-84
2021/10/12 04:43:21;;;;;;;27.67;19.80;;;;;;;7.98;nan;101126.72;5021781;28;20048;-84
2021/10/12 04:45:47;;;;;;;29.80;19.52;;;;;;;8.03;nan;101136.91;5022047;28;20187;-85
2021/10/12 04:48:15;;;;;;;26.58;18.20;;;;;;;8.08;nan;101126.88;5037860;28;20527;-85
2021/10/12 04:50:40;;;;;;;25.00;18.02;;;;;;;8.10;nan;101132.84;5018750;28;20033;-84
2021/10/12 04:53:06;;;;;;;24.52;17.90;;;;;;;8.13;nan;101123.84;5021370;28;20089;-83
2021/10/12 04:55:31;;;;;;;24.42;17.13;;;;;;;8.17;nan;101118.22;5015647;28;20049;-83
2021/10/12 04:57:58;;;;;;;24.98;18.02;;;;;;;8.17;nan;101120.03;5018687;28;20029;-85
2021/10/12 05:00:24;;;;;;;25.35;17.52;;;;;;;8.14;nan;101110.56;5034534;28;20095;-82
2021/10/12 05:02:49;;;;;;;23.25;16.60;;;;;;;8.13;nan;101119.44;5032921;28;20045;-83
2021/10/12 05:05:14;;;;;;;27.05;18.05;;;;;;;8.14;nan;101117.63;5016236;28;20037;-84
2021/10/12 05:07:40;;;;;;;26.85;17.92;;;;;;;8.14;nan;101110.56;5025175;28;20025;-82
2021/10/12 05:10:06;;;;;;;27.02;17.75;;;;;;;8.15;nan;101109.63;5036803;28;20026;-84
2021/10/12 05:12:32;;;;;;;30.40;19.08;;;;;;;8.17;nan;101104.22;5019626;28;20033;-83
2021/10/12 05:14:57;;;;;;;26.15;18.33;;;;;;;8.09;nan;101105.66;5019859;28;20521;-83
2021/10/12 05:17:26;;;;;;;27.25;17.00;;;;;;;8.08;nan;101096.09;5019978;28;20120;-83
2021/10/12 05:19:52;;;;;;;26.55;18.17;;;;;;;8.05;nan;101095.50;5018820;28;20092;-83
2021/10/12 05:22:17;;;;;;;35.50;20.65;;;;;;;8.11;nan;101084.47;5017870;28;20037;-82
2021/10/12 05:24:42;;;;;;;31.92;20.20;;;;;;;8.06;nan;101082.22;5019504;28;20040;-82
2021/10/12 05:27:08;;;;;;;29.00;18.60;;;;;;;8.00;nan;101069.50;5017632;28;20048;-83
2021/10/12 05:29:33;;;;;;;25.88;17.38;;;;;;;8.00;nan;101063.41;5017459;28;20068;-83
2021/10/12 05:31:59;;;;;;;26.30;17.73;;;;;;;7.98;nan;101075.88;5030773;28;20036;-83
2021/10/12 05:34:25;;;;;;;23.40;16.02;;;;;;;7.96;nan;101067.25;5028935;28;20041;-83
2021/10/12 05:36:50;;;;;;;29.30;19.00;;;;;;;7.97;nan;101076.84;5022571;28;20088;-83
2021/10/12 05:39:16;;;;;;;28.63;18.02;;;;;;;7.97;nan;101074.22;5032457;28;20112;-83
2021/10/12 05:41:41;;;;;;;27.50;18.58;;;;;;;7.91;nan;101074.69;5025343;28;20297;-82
2021/10/12 05:44:06;;;;;;;29.55;18.58;;;;;;;7.87;nan;101072.28;5022203;28;20033;-84
2021/10/12 05:46:32;;;;;;;23.67;15.55;;;;;;;7.89;nan;101080.09;5041579;28;20037;-82
2021/10/12 05:48:58;;;;;;;33.13;20.27;;;;;;;7.95;nan;101068.22;5054479;28;20128;-82
2021/10/12 05:51:25;;;;;;;27.85;18.60;;;;;;;7.99;nan;101061.75;5024164;28;20021;-84
2021/10/12 05:53:54;;;;;;;41.45;24.90;;;;;;;8.11;nan;101059.94;5017629;28;20451;-84
2021/10/12 05:56:38;;;;;;;37.65;24.48;;;;;;;8.14;nan;101057.88;5032692;28;20022;-84
2021/10/12 05:59:04;;;;;;;34.05;21.00;;;;;;;8.08;nan;101064.50;5033710;28;20120;-83
2021/10/12 06:01:29;;;;;;;28.92;19.40;;;;;;;8.05;nan;101064.72;5014941;28;20168;-83
2021/10/12 06:03:54;;;;;;;30.13;19.20;;;;;;;8.04;nan;101065.69;5015111;28;20037;-84
2021/10/12 06:06:20;;;;;;;33.47;21.27;;;;;;;8.15;nan;101062.22;5015551;28;20025;-84
2021/10/12 06:08:45;;;;;;;37.90;23.13;;;;;;;8.24;nan;101060.63;5023179;28;20048;-83
2021/10/12 06:11:11;;;;;;;30.48;20.63;;;;;;;8.19;nan;101058.34;5014788;28;20411;-84
2021/10/12 06:13:39;;;;;;;28.58;18.77;;;;;;;8.14;nan;101068.44;5032732;28;20423;-85
2021/10/12 06:16:05;;;;;;;32.10;22.42;;;;;;;8.17;nan;101067.34;5014983;28;20589;-85
2021/10/12 06:18:30;;;;;;;27.17;18.40;;;;;;;8.21;nan;101074.88;5015682;28;20046;-84
2021/10/12 06:20:56;;;;;;;29.17;17.88;;;;;;;8.28;nan;101076.06;5015477;28;20119;-83
2021/10/12 06:23:23;;;;;;;29.35;18.95;;;;;;;8.28;nan;101069.97;5015411;28;20037;-84
2021/10/12 06:25:49;;;;;;;27.20;18.10;;;;;;;8.34;nan;101074.72;5033709;28;20030;-83
2021/10/12 06:28:16;;;;;;;33.33;20.02;;;;;;;8.41;nan;101075.91;5014762;28;20394;-84
2021/10/12 06:30:42;;;;;;;29.40;18.20;;;;;;;8.47;nan;101085.16;5033328;28;20030;-83
2021/10/12 06:33:08;;;;;;;27.10;17.70;;;;;;;8.48;nan;101078.91;5018409;28;20090;-83
2021/10/12 06:35:34;;;;;;;31.85;20.05;;;;;;;8.54;nan;101075.78;5017669;28;20515;-85
2021/10/12 06:38:00;;;;;;;27.85;17.13;;;;;;;8.52;nan;101082.97;5038748;28;20048;-84
2021/10/12 06:40:27;;;;;;;23.00;15.27;;;;;;;8.54;nan;101075.78;5019830;28;20045;-84
2021/10/12 06:42:52;;;;;;;23.13;15.63;;;;;;;8.53;nan;101084.63;5033972;28;20068;-82
2021/10/12 06:45:19;;;;;;;29.48;19.40;;;;;;;8.63;nan;101082.13;5027332;28;20080;-84
2021/10/12 06:47:45;;;;;;;25.58;16.45;;;;;;;8.57;nan;101086.06;5031233;28;19951;-83
2021/10/12 06:50:11;;;;;;;22.33;14.70;;;;;;;8.62;nan;101080.41;5024676;28;20029;-84
2021/10/12 06:52:36;;;;;;;21.65;15.80;;;;;;;8.62;nan;101072.50;5020611;28;20056;-84
2021/10/12 06:55:02;;;;;;;27.83;18.05;;;;;;;8.70;nan;101081.47;5018266;28;20034;-84
2021/10/12 06:57:28;;;;;;;29.90;17.27;;;;;;;8.70;nan;101078.00;5017568;28;20060;-84
2021/10/12 06:59:53;;;;;;;26.67;18.05;;;;;;;8.76;nan;101085.41;5034025;28;20502;-83
2021/10/12 07:02:18;;;;;;;28.27;17.67;;;;;;;8.82;nan;101081.41;5015249;28;20038;-84
2021/10/12 07:04:45;;;;;;;25.33;17.60;;;;;;;8.77;nan;101086.22;5015808;28;20030;-84
2021/10/12 07:07:10;;;;;;;21.98;14.82;;;;;;;8.82;nan;101087.53;5015985;28;20037;-84
2021/10/12 07:09:35;;;;;;;22.42;14.40;;;;;;;8.88;nan;101091.47;5016446;28;20033;-84
2021/10/12 07:12:01;;;;;;;26.65;18.40;;;;;;;9.05;nan;101090.06;5032831;28;20030;-85
2021/10/12 07:14:27;;;;;;;25.42;16.17;;;;;;;9.00;nan;101074.63;5033314;28;20095;-83
2021/10/12 07:16:53;;;;;;;26.58;16.20;;;;;;;9.10;nan;101083.44;5014858;28;20037;-84
2021/10/12 07:19:19;;;;;;;23.08;15.48;;;;;;;9.08;nan;101079.25;5032735;28;20069;-84
2021/10/12 07:21:45;;;;;;;24.75;15.98;;;;;;;9.21;nan;101084.34;5015343;28;20049;-84
2021/10/12 07:24:11;;;;;;;21.98;14.73;;;;;;;9.17;nan;101078.47;5015419;28;20045;-85
2021/10/12 07:26:37;;;;;;;19.42;13.20;;;;;;;9.18;nan;101085.44;5016521;28;20029;-84
2021/10/12 07:29:02;;;;;;;20.42;13.75;;;;;;;9.20;nan;101083.53;5034524;28;20036;-84
2021/10/12 07:31:27;;;;;;;16.17;11.50;;;;;;;9.29;nan;101085.34;5019404;28;20273;-86
2021/10/12 07:33:53;;;;;;;21.92;13.85;;;;;;;9.44;nan;101080.59;5028557;28;20033;-84
2021/10/12 07:36:19;;;;;;;23.10;14.77;;;;;;;9.46;nan;101073.38;5030509;28;20033;-84
2021/10/12 07:38:44;;;;;;;21.27;13.00;;;;;;;9.34;nan;101077.03;5041229;28;20067;-84
2021/10/12 07:41:12;;;;;;;25.38;15.23;;;;;;;9.44;nan;101075.31;5015071;28;20034;-84
2021/10/12 07:43:37;;;;;;;25.33;16.08;;;;;;;9.60;nan;101071.34;5014946;28;20455;-84
2021/10/12 07:46:03;;;;;;;23.23;15.40;;;;;;;9.65;nan;101077.06;5014398;28;20068;-83
2021/10/12 07:48:29;;;;;;;21.08;14.07;;;;;;;9.61;nan;101065.94;5040689;28;20033;-84
2021/10/12 07:50:54;;;;;;;25.75;15.90;;;;;;;9.67;nan;101073.31;5024011;28;20033;-84
2021/10/12 07:53:20;;;;;;;23.80;14.43;;;;;;;9.65;nan;101066.50;5014227;28;20406;-83
2021/10/12 07:55:50;;;;;;;22.25;13.50;;;;;;;9.61;nan;101073.03;5013990;28;20553;-84
2021/10/12 07:58:16;;;;;;;22.35;14.32;;;;;;;9.59;nan;101073.16;5045375;28;20030;-83
2021/10/12 08:00:43;;;;;;;19.83;14.00;;;;;;;9.56;nan;101071.63;5013806;28;20514;-84
2021/10/12 08:03:10;;;;;;;20.80;13.32;;;;;;;9.52;nan;101067.56;5018016;28;20036;-85
2021/10/12 08:05:36;;;;;;;22.88;13.13;;;;;;;9.62;nan;101070.25;5012981;28;20034;-85
2021/10/12 08:08:02;;;;;;;20.35;14.10;;;;;;;9.70;nan;101066.94;5012796;28;20029;-86
2021/10/12 08:10:27;;;;;;;19.35;13.48;;;;;;;9.64;nan;101072.78;5014488;28;20045;-85
2021/10/12 08:12:57;;;;;;;17.02;11.52;;;;;;;9.65;nan;101064.69;5015093;28;20045;-84
2021/10/12 08:15:23;;;;;;;21.58;13.13;;;;;;;9.78;nan;101056.56;5012949;28;20048;-84
2021/10/12 08:17:48;;;;;;;20.35;13.02;;;;;;;9.76;nan;101061.13;5013602;28;20034;-83
2021/10/12 08:20:14;;;;;;;23.20;14.43;;;;;;;9.72;nan;101055.28;5013154;28;20125;-85
2021/10/12 08:22:40;;;;;;;22.40;14.20;;;;;;;9.78;nan;101051.28;5031687;28;20089;-85
2021/10/12 08:25:09;;;;;;;20.33;13.40;;;;;;;9.81;nan;101043.09;5012388;28;20606;-84
2021/10/12 08:27:38;;;;;;;22.77;14.05;;;;;;;9.78;nan;101046.84;5032952;28;20552;-83
2021/10/12 08:30:07;;;;;;;23.27;13.38;;;;;;;9.85;nan;101043.66;5017518;28;20030;-84
2021/10/12 08:32:33;;;;;;;20.92;14.23;;;;;;;9.84;nan;101034.88;5017212;28;20030;-84
2021/10/12 08:34:58;;;;;;;23.27;14.98;;;;;;;9.91;nan;101032.53;5017289;28;20036;-83
2021/10/12 08:37:24;;;;;;;21.33;13.32;;;;;;;9.87;nan;101032.00;5015549;28;20037;-84
2021/10/12 08:39:49;;;;;;;23.08;13.38;;;;;;;9.83;nan;101024.47;5034208;28;20111;-83
2021/10/12 08:42:25;;;;;;;21.80;13.45;;;;;;;9.86;nan;101038.22;5033849;28;20112;-83
2021/10/12 08:45:00;;;;;;;22.25;14.88;;;;;;;9.87;nan;101023.25;5016997;28;20044;-83
2021/10/12 08:47:27;;;;;;;24.15;14.77;;;;;;;9.90;nan;101018.50;5016791;28;20042;-85
2021/10/12 08:49:54;;;;;;;18.73;12.55;;;;;;;9.93;nan;101020.03;5035038;28;20072;-85
2021/10/12 08:52:21;;;;;;;20.58;14.27;;;;;;;9.89;nan;101018.63;5016965;28;20440;-85
2021/10/12 08:54:48;;;;;;;24.05;15.68;;;;;;;9.96;nan;101014.47;5035247;28;20072;-84
2021/10/12 08:57:39;;;;;;;24.05;13.48;;;;;;;10.09;nan;101014.25;5017063;28;20037;-85
2021/10/12 09:00:10;;;;;;;28.27;16.77;;;;;;;10.27;nan;101015.22;5014388;28;20036;-85
2021/10/12 09:02:56;;;;;;;24.27;15.13;;;;;;;10.30;nan;101011.53;5046665;28;20097;-85
2021/10/12 09:05:25;;;;;;;27.17;17.02;;;;;;;10.33;nan;101009.44;5021624;28;20029;-84
2021/10/12 09:07:52;;;;;;;25.42;16.83;;;;;;;10.38;nan;101001.91;5015898;28;20056;-84
2021/10/12 09:10:22;;;;;;;23.20;15.90;;;;;;;10.48;nan;100995.78;5016285;28;20026;-85
2021/10/12 09:12:53;;;;;;;23.42;14.32;;;;;;;10.55;nan;100987.16;5034947;28;20030;-86
2021/10/12 09:15:18;;;;;;;24.65;15.35;;;;;;;10.62;nan;100990.06;5016866;28;20022;-85
2021/10/12 09:17:52;;;;;;;24.38;15.63;;;;;;;10.73;nan;100981.16;5016110;28;20509;-84
2021/10/12 09:20:17;;;;;;;20.73;13.75;;;;;;;10.71;nan;100988.41;5016069;28;20120;-85
2021/10/12 09:23:09;;;;;;;16.52;12.27;;;;;;;10.68;nan;100992.16;5015885;28;20041;-84
2021/10/12 09:25:45;;;;;;;21.85;14.60;;;;;;;10.92;nan;100982.94;5041715;28;20041;-85
2021/10/12 09:28:25;;;;;;;22.00;14.15;;;;;;;10.97;nan;100980.69;5009058;28;20029;-83
2021/10/12 09:30:54;;;;;;;18.05;12.82;;;;;;;11.00;nan;100977.75;5019708;28;20583;-83
2021/10/12 09:33:19;;;;;;;21.48;14.40;;;;;;;11.08;nan;100983.16;5021417;28;20033;-84
2021/10/12 09:35:45;;;;;;;22.48;15.15;;;;;;;11.20;nan;100976.72;5019420;28;20037;-85
2021/10/12 09:38:12;;;;;;;22.00;14.45;;;;;;;11.41;nan;100973.84;5018567;28;20071;-84
2021/10/12 09:40:41;;;;;;;21.27;14.57;;;;;;;11.67;nan;100970.50;5019183;28;20041;-85
2021/10/12 09:43:07;;;;;;;19.10;12.93;;;;;;;11.81;nan;100974.50;5038729;28;20038;-85
2021/10/12 09:45:41;;;;;;;18.48;12.70;;;;;;;11.86;nan;100978.34;5023396;28;20053;-85
2021/10/12 09:48:32;;;;;;;20.25;12.93;;;;;;;11.89;nan;100969.28;5020141;28;20052;-84
2021/10/12 09:51:11;;;;;;;18.80;12.75;;;;;;;11.94;nan;100966.19;5045232;28;20168;-85
2021/10/12 09:53:38;;;;;;;22.77;13.82;;;;;;;12.02;nan;100961.00;5026067;28;20047;-83
2021/10/12 09:56:06;;;;;;;19.60;12.32;;;;;;;11.87;nan;100958.88;5044219;28;20037;-84
2021/10/12 09:58:33;;;;;;;19.75;13.40;;;;;;;12.01;nan;100954.00;5019111;28;20036;-85
2021/10/12 10:01:04;;;;;;;19.67;12.95;;;;;;;11.90;nan;100953.25;5037553;28;20029;-85
2021/10/12 10:03:31;;;;;;;19.92;13.57;;;;;;;12.02;nan;100945.91;5019198;28;20030;-84
2021/10/12 10:06:10;;;;;;;17.45;12.75;;;;;;;11.90;nan;100939.19;5019062;28;20034;-85
2021/10/12 10:08:43;;;;;;;19.17;13.60;;;;;;;11.98;nan;100943.72;5036713;28;20033;-84
2021/10/12 10:11:09;;;;;;;17.55;12.15;;;;;;;11.86;nan;100937.78;5019483;28;20113;-85
2021/10/12 10:13:35;;;;;;;20.65;13.43;;;;;;;11.89;nan;100935.69;5024241;28;20057;-85
2021/10/12 10:16:02;;;;;;;20.63;13.32;;;;;;;12.10;nan;100932.72;5026222;28;20105;-85
2021/10/12 10:18:28;;;;;;;21.90;13.90;;;;;;;12.31;nan;100942.19;5021422;28;20501;-83
2021/10/12 10:20:55;;;;;;;20.00;12.73;;;;;;;12.30;nan;100932.59;5037748;28;20110;-83
2021/10/12 10:24:11;;;;;;;18.42;12.45;;;;;;;12.41;nan;100932.34;5019346;28;20025;-84
2021/10/12 10:26:40;;;;;;;18.52;12.30;;;;;;;12.40;nan;100930.69;5018057;28;20029;-85
2021/10/12 10:29:36;;;;;;;16.92;11.25;;;;;;;12.25;nan;100924.25;5013679;28;20030;-86
2021/10/12 10:32:12;;;;;;;16.45;11.85;;;;;;;12.40;nan;100922.72;5038150;28;20039;-84
2021/10/12 10:34:40;;;;;;;18.23;12.40;;;;;;;12.51;nan;100911.88;5041309;28;20060;-85
2021/10/12 10:37:18;;;;;;;20.25;12.52;;;;;;;12.51;nan;100909.22;5003515;28;20033;-84
2021/10/12 10:39:44;;;;;;;14.02;10.50;;;;;;;12.37;nan;100907.13;5036408;28;20044;-85
2021/10/12 10:42:41;;;;;;;16.40;11.38;;;;;;;12.30;nan;100898.94;5019979;28;20048;-85
2021/10/12 10:45:09;;;;;;;16.05;11.68;;;;;;;12.43;nan;100895.88;5037955;28;20119;-83
2021/10/12 10:47:40;;;;;;;15.48;9.63;;;;;;;12.53;nan;100893.97;5027141;28;20124;-85
2021/10/12 10:50:25;;;;;;;14.20;8.32;;;;;;;12.58;nan;100890.84;5011481;28;20029;-86
2021/10/12 10:52:52;;;;;;;10.82;7.55;;;;;;;12.42;nan;100885.41;5020147;28;20067;-86
2021/10/12 10:55:26;;;;;;;10.15;6.63;;;;;;;12.46;nan;100882.31;5020845;28;20029;-84
2021/10/12 10:58:00;;;;;;;13.15;8.07;;;;;;;12.71;nan;100888.63;5045954;28;20049;-83
2021/10/12 11:00:35;;;;;;;9.68;6.60;;;;;;;12.91;nan;100883.06;5036674;28;20041;-84
2021/10/12 11:03:00;;;;;;;8.98;5.18;;;;;;;13.08;nan;100876.00;4998598;28;20415;-85
2021/10/12 11:05:36;;;;;;;9.43;6.43;;;;;;;13.17;nan;100880.38;5020180;28;20037;-85
2021/10/12 11:08:07;;;;;;;9.05;5.60;;;;;;;13.31;nan;100876.31;5017616;28;20037;-84
2021/10/12 11:10:33;;;;;;;;;;;;;;;13.42;nan;100872.50;5018879;28;20030;-84
2021/10/12 11:12:58;;;;;;;10.98;6.20;;;;;;;13.13;nan;100861.28;5020226;28;20338;-83
2021/10/12 11:15:24;;;;;;;9.70;5.93;;;;;;;13.14;nan;100854.16;5018506;28;20033;-84
2021/10/12 11:18:06;;;;;;;10.45;5.88;;;;;;;12.91;nan;100856.53;5021935;28;20041;-84
2021/10/12 11:20:47;;;;;;;10.68;6.15;;;;;;;12.89;nan;100854.03;5017731;28;20033;-83
2021/10/12 11:23:19;;;;;;;9.65;6.00;;;;;;;12.70;nan;100855.13;5016013;28;20034;-84
2021/10/12 11:25:54;;;;;;;12.38;6.78;;;;;;;12.88;nan;100848.91;5016295;28;20029;-83
2021/10/12 11:28:23;;;;;;;11.27;6.43;;;;;;;12.86;nan;100851.69;5016883;28;20509;-83
2021/10/12 11:30:48;;;;;;;12.25;6.30;;;;;;;12.79;nan;100844.53;5017742;28;20045;-83
2021/10/12 11:33:14;;;;;;;9.35;5.70;;;;;;;12.85;nan;100839.44;5016323;28;20033;-83
2021/10/12 11:35:40;;;;;;;7.07;4.38;;;;;;;12.75;nan;100838.69;5017567;28;20093;-85